Kittiwake — WDA8782 — position and weather

sailwx.info

Track history (hours):
 
Tides and Currents Weather Stations Pressure Air Temp Water Temp Dewpoint Dewpoint Depression Visibility Wind Speed Wind Dir Waves Ship Positions

Kittiwake

Owner: Hempstead Navigation Service, LLC, Exeter, RI. More information available from US FCC via Universal Licensing System and Coast Guard Vessel Documentation Center.

Last reported at 2018-Apr-30 19:28 UTC. Time now 2018-Jun-24 15:10 UTC.
Position N 41°40' W 071°27'.
Warning: this ship's position is 54 days out of date.

Length 23 m; draft 2.4 m.

Type: Ship. MMSI: 369156000.

Date/timePositionNaut miles runAvg speedWind from/ knotsBaromVisibWave heightAir tempDewpointWater temp
2018-Apr-30 19:28N 41°40' W 071°27'1 2.9
2018-Apr-30 19:00N 41°41' W 071°25'3 5.2
2018-Apr-30 18:30N 41°39' W 071°22'2 3.6
2018-Apr-30 17:58N 41°37' W 071°22'6 1.9
2018-Apr-30 14:54N 41°31' W 071°24'4 6.6
2018-Apr-30 14:16N 41°36' W 071°23'2 6.3
2018-Apr-30 14:00N 41°37' W 071°23'3 5.5
2018-Apr-30 13:30N 41°40' W 071°23'2 3.3
2018-Apr-30 13:00N 41°41' W 071°25'0 0.5
2018-Apr-30 12:28N 41°40' W 071°26'1 1.8
2018-Apr-30 11:57N 41°40' W 071°27'0 0.0
2018-Apr-30 11:22N 41°40' W 071°27'0 0.0
2018-Apr-30 10:40N 41°40' W 071°27'  
2018-Apr-27 19:21N 41°40' W 071°27'0 0.9
2018-Apr-27 19:00N 41°40' W 071°26'3 5.5
2018-Apr-27 18:30N 41°40' W 071°23'3 6.3
2018-Apr-27 17:58N 41°37' W 071°22'1 0.6
2018-Apr-27 16:46N 41°36' W 071°22'1 0.3
2018-Apr-27 13:23N 41°36' W 071°23'3 6.8
2018-Apr-27 12:59N 41°39' W 071°23'3 5.3
2018-Apr-27 12:29N 41°41' W 071°26'  
2018-Apr-24 19:29N 41°40' W 071°27'1 2.6
2018-Apr-24 18:59N 41°41' W 071°25'3 5.6
2018-Apr-24 18:30N 41°39' W 071°22'2 3.7
2018-Apr-24 18:00N 41°37' W 071°21'0 0.9
2018-Apr-24 17:29N 41°37' W 071°21'1 1.3
2018-Apr-24 17:00N 41°36' W 071°22'7 2.7
2018-Apr-24 14:31N 41°30' W 071°25'2 6.0
2018-Apr-24 14:12N 41°32' W 071°24'1 6.0
2018-Apr-24 14:00N 41°33' W 071°24'3 5.9
2018-Apr-24 13:30N 41°36' W 071°23'3 6.2
2018-Apr-24 13:00N 41°39' W 071°23'3 5.0
2018-Apr-24 12:30N 41°41' W 071°25'1 1.6
2018-Apr-24 11:45N 41°40' W 071°27'0 0.0
2018-Apr-24 10:50N 41°40' W 071°27'0 0.0
2018-Apr-23 19:30N 41°40' W 071°27'1 2.1
2018-Apr-23 18:59N 41°41' W 071°25'3 4.8
2018-Apr-23 18:25N 41°39' W 071°23'1 1.1
2018-Apr-23 17:28N 41°38' W 071°22'1 2.5
2018-Apr-23 16:59N 41°37' W 071°22'1 2.4
2018-Apr-23 16:30N 41°38' W 071°22'1 2.5
2018-Apr-23 16:00N 41°37' W 071°22'1 2.5
2018-Apr-23 15:30N 41°38' W 071°22'1 2.5
2018-Apr-23 15:00N 41°37' W 071°22'1 2.7
2018-Apr-23 14:30N 41°38' W 071°22'2 4.7
2018-Apr-23 14:00N 41°40' W 071°23'2 3.5
2018-Apr-23 13:30N 41°41' W 071°26'0 0.1
2018-Apr-23 13:00N 41°41' W 071°26'1 2.3
2018-Apr-23 12:28N 41°40' W 071°27'  
Track history (hours):
 
Tides and Currents Weather Stations Pressure Air Temp Water Temp Dewpoint Dewpoint Depression Visibility Wind Speed Wind Dir Waves Ship Positions

Kittiwake

Owner: Hempstead Navigation Service, LLC, Exeter, RI. More information available from US FCC via Universal Licensing System and Coast Guard Vessel Documentation Center.

Last reported at 2018-Apr-30 19:28 UTC. Time now 2018-Jun-24 15:10 UTC.
Position N 41°40' W 071°27'.
Warning: this ship's position is 54 days out of date.

Length 23 m; draft 2.4 m.

Type: Ship. MMSI: 369156000.

Date/timePositionNaut miles runAvg speedWind from/ knotsBaromVisibWave heightAir tempDewpointWater temp
2018-Apr-30 19:28N 41°40' W 071°27'1 2.9
2018-Apr-30 19:00N 41°41' W 071°25'3 5.2
2018-Apr-30 18:30N 41°39' W 071°22'2 3.6
2018-Apr-30 17:58N 41°37' W 071°22'6 1.9
2018-Apr-30 14:54N 41°31' W 071°24'4 6.6
2018-Apr-30 14:16N 41°36' W 071°23'2 6.3
2018-Apr-30 14:00N 41°37' W 071°23'3 5.5
2018-Apr-30 13:30N 41°40' W 071°23'2 3.3
2018-Apr-30 13:00N 41°41' W 071°25'0 0.5
2018-Apr-30 12:28N 41°40' W 071°26'1 1.8
2018-Apr-30 11:57N 41°40' W 071°27'0 0.0
2018-Apr-30 11:22N 41°40' W 071°27'0 0.0
2018-Apr-30 10:40N 41°40' W 071°27'  
2018-Apr-27 19:21N 41°40' W 071°27'0 0.9
2018-Apr-27 19:00N 41°40' W 071°26'3 5.5
2018-Apr-27 18:30N 41°40' W 071°23'3 6.3
2018-Apr-27 17:58N 41°37' W 071°22'1 0.6
2018-Apr-27 16:46N 41°36' W 071°22'1 0.3
2018-Apr-27 13:23N 41°36' W 071°23'3 6.8
2018-Apr-27 12:59N 41°39' W 071°23'3 5.3
2018-Apr-27 12:29N 41°41' W 071°26'  
2018-Apr-24 19:29N 41°40' W 071°27'1 2.6
2018-Apr-24 18:59N 41°41' W 071°25'3 5.6
2018-Apr-24 18:30N 41°39' W 071°22'2 3.7
2018-Apr-24 18:00N 41°37' W 071°21'0 0.9
2018-Apr-24 17:29N 41°37' W 071°21'1 1.3
2018-Apr-24 17:00N 41°36' W 071°22'7 2.7
2018-Apr-24 14:31N 41°30' W 071°25'2 6.0
2018-Apr-24 14:12N 41°32' W 071°24'1 6.0
2018-Apr-24 14:00N 41°33' W 071°24'3 5.9
2018-Apr-24 13:30N 41°36' W 071°23'3 6.2
2018-Apr-24 13:00N 41°39' W 071°23'3 5.0
2018-Apr-24 12:30N 41°41' W 071°25'1 1.6
2018-Apr-24 11:45N 41°40' W 071°27'0 0.0
2018-Apr-24 10:50N 41°40' W 071°27'0 0.0
2018-Apr-23 19:30N 41°40' W 071°27'1 2.1
2018-Apr-23 18:59N 41°41' W 071°25'3 4.8
2018-Apr-23 18:25N 41°39' W 071°23'1 1.1
2018-Apr-23 17:28N 41°38' W 071°22'1 2.5
2018-Apr-23 16:59N 41°37' W 071°22'1 2.4
2018-Apr-23 16:30N 41°38' W 071°22'1 2.5
2018-Apr-23 16:00N 41°37' W 071°22'1 2.5
2018-Apr-23 15:30N 41°38' W 071°22'1 2.5
2018-Apr-23 15:00N 41°37' W 071°22'1 2.7
2018-Apr-23 14:30N 41°38' W 071°22'2 4.7
2018-Apr-23 14:00N 41°40' W 071°23'2 3.5
2018-Apr-23 13:30N 41°41' W 071°26'0 0.1
2018-Apr-23 13:00N 41°41' W 071°26'1 2.3
2018-Apr-23 12:28N 41°40' W 071°27'  

Dump ship's entire track history